sensor_id;sensor_type;location;lat;lon;timestamp;temperature;humidity
18593;DHT22;9426;54.118;17.948;2022-08-25T00:00:06;18.80;99.90
18593;DHT22;9426;54.118;17.948;2022-08-25T00:05:30;18.90;99.90
18593;DHT22;9426;54.118;17.948;2022-08-25T00:10:53;19.00;99.90
18593;DHT22;9426;54.118;17.948;2022-08-25T00:16:19;19.00;99.90
18593;DHT22;9426;54.118;17.948;2022-08-25T00:21:44;18.90;99.90
18593;DHT22;9426;54.118;17.948;2022-08-25T00:27:08;18.80;99.90
18593;DHT22;9426;54.118;17.948;2022-08-25T00:32:35;18.90;99.90
18593;DHT22;9426;54.118;17.948;2022-08-25T00:37:58;18.90;99.90
18593;DHT22;9426;54.118;17.948;2022-08-25T00:43:21;18.90;99.90
18593;DHT22;9426;54.118;17.948;2022-08-25T00:48:50;18.90;99.90
18593;DHT22;9426;54.118;17.948;2022-08-25T00:54:18;19.00;99.90
18593;DHT22;9426;54.118;17.948;2022-08-25T00:59:43;19.00;99.90
18593;DHT22;9426;54.118;17.948;2022-08-25T01:05:08;19.00;99.90
18593;DHT22;9426;54.118;17.948;2022-08-25T01:10:33;19.00;99.90
18593;DHT22;9426;54.118;17.948;2022-08-25T01:15:58;18.90;99.90
18593;DHT22;9426;54.118;17.948;2022-08-25T01:21:24;18.90;99.90
18593;DHT22;9426;54.118;17.948;2022-08-25T01:26:48;19.00;99.90
18593;DHT22;9426;54.118;17.948;2022-08-25T01:32:12;18.90;99.90
18593;DHT22;9426;54.118;17.948;2022-08-25T01:37:38;18.90;99.90
18593;DHT22;9426;54.118;17.948;2022-08-25T01:43:06;18.90;99.90
18593;DHT22;9426;54.118;17.948;2022-08-25T01:48:33;18.90;99.90
18593;DHT22;9426;54.118;17.948;2022-08-25T01:53:58;18.80;99.90
18593;DHT22;9426;54.118;17.948;2022-08-25T01:59:22;18.80;99.90
18593;DHT22;9426;54.118;17.948;2022-08-25T02:04:45;18.70;99.90
18593;DHT22;9426;54.118;17.948;2022-08-25T02:10:11;18.60;99.90
18593;DHT22;9426;54.118;17.948;2022-08-25T02:15:39;18.60;99.90
18593;DHT22;9426;54.118;17.948;2022-08-25T02:21:03;18.70;99.90
18593;DHT22;9426;54.118;17.948;2022-08-25T02:26:28;18.80;99.90
18593;DHT22;9426;54.118;17.948;2022-08-25T02:31:51;18.80;99.90
18593;DHT22;9426;54.118;17.948;2022-08-25T02:37:15;18.80;99.90
18593;DHT22;9426;54.118;17.948;2022-08-25T02:42:39;18.90;99.90
18593;DHT22;9426;54.118;17.948;2022-08-25T02:48:02;19.00;99.90
18593;DHT22;9426;54.118;17.948;2022-08-25T02:53:27;18.90;99.90
18593;DHT22;9426;54.118;17.948;2022-08-25T02:58:52;18.90;99.90
18593;DHT22;9426;54.118;17.948;2022-08-25T03:04:15;18.80;99.90
18593;DHT22;9426;54.118;17.948;2022-08-25T03:09:39;18.80;99.90
18593;DHT22;9426;54.118;17.948;2022-08-25T03:15:04;18.80;99.90
18593;DHT22;9426;54.118;17.948;2022-08-25T03:20:27;18.80;99.90
18593;DHT22;9426;54.118;17.948;2022-08-25T03:25:53;18.90;99.90
18593;DHT22;9426;54.118;17.948;2022-08-25T03:31:34;18.90;99.90
18593;DHT22;9426;54.118;17.948;2022-08-25T03:36:59;18.80;99.90
18593;DHT22;9426;54.118;17.948;2022-08-25T03:42:22;18.70;99.90
18593;DHT22;9426;54.118;17.948;2022-08-25T03:47:49;18.50;99.90
18593;DHT22;9426;54.118;17.948;2022-08-25T03:53:13;18.50;99.90
18593;DHT22;9426;54.118;17.948;2022-08-25T03:58:36;18.50;99.90
18593;DHT22;9426;54.118;17.948;2022-08-25T04:04:01;18.50;99.90
18593;DHT22;9426;54.118;17.948;2022-08-25T04:09:25;18.50;99.90
18593;DHT22;9426;54.118;17.948;2022-08-25T04:14:48;18.50;99.90
18593;DHT22;9426;54.118;17.948;2022-08-25T04:20:13;18.50;99.90
18593;DHT22;9426;54.118;17.948;2022-08-25T04:25:39;18.60;99.90
18593;DHT22;9426;54.118;17.948;2022-08-25T04:31:06;18.80;99.90
18593;DHT22;9426;54.118;17.948;2022-08-25T04:36:31;18.90;99.90
18593;DHT22;9426;54.118;17.948;2022-08-25T04:41:54;19.00;99.90
18593;DHT22;9426;54.118;17.948;2022-08-25T04:47:18;19.00;99.90
18593;DHT22;9426;54.118;17.948;2022-08-25T04:52:42;19.10;99.90
18593;DHT22;9426;54.118;17.948;2022-08-25T04:58:06;19.10;99.90
18593;DHT22;9426;54.118;17.948;2022-08-25T05:03:29;19.20;99.90
18593;DHT22;9426;54.118;17.948;2022-08-25T05:08:54;19.20;99.90
18593;DHT22;9426;54.118;17.948;2022-08-25T05:14:18;19.30;99.90
18593;DHT22;9426;54.118;17.948;2022-08-25T05:19:43;19.40;99.90
18593;DHT22;9426;54.118;17.948;2022-08-25T05:25:08;19.70;99.90
18593;DHT22;9426;54.118;17.948;2022-08-25T05:30:32;20.00;99.90
18593;DHT22;9426;54.118;17.948;2022-08-25T05:35:55;20.30;99.90
18593;DHT22;9426;54.118;17.948;2022-08-25T05:41:21;20.40;99.90
18593;DHT22;9426;54.118;17.948;2022-08-25T05:46:47;20.50;99.90
18593;DHT22;9426;54.118;17.948;2022-08-25T05:52:10;20.70;99.90
18593;DHT22;9426;54.118;17.948;2022-08-25T05:57:37;20.80;99.90
18593;DHT22;9426;54.118;17.948;2022-08-25T06:03:00;20.80;99.90
18593;DHT22;9426;54.118;17.948;2022-08-25T06:08:24;20.90;99.90
18593;DHT22;9426;54.118;17.948;2022-08-25T06:13:52;21.10;99.90
18593;DHT22;9426;54.118;17.948;2022-08-25T06:19:16;21.20;99.90
18593;DHT22;9426;54.118;17.948;2022-08-25T06:24:39;21.30;99.90
18593;DHT22;9426;54.118;17.948;2022-08-25T06:30:05;21.40;99.90
18593;DHT22;9426;54.118;17.948;2022-08-25T06:35:28;21.60;99.90
18593;DHT22;9426;54.118;17.948;2022-08-25T06:40:52;21.90;99.90
18593;DHT22;9426;54.118;17.948;2022-08-25T06:46:21;21.80;99.90
18593;DHT22;9426;54.118;17.948;2022-08-25T06:51:44;21.90;99.90
18593;DHT22;9426;54.118;17.948;2022-08-25T06:57:08;22.10;99.90
18593;DHT22;9426;54.118;17.948;2022-08-25T07:02:33;22.50;99.90
18593;DHT22;9426;54.118;17.948;2022-08-25T07:07:56;22.60;99.90
18593;DHT22;9426;54.118;17.948;2022-08-25T07:13:19;22.50;99.90
18593;DHT22;9426;54.118;17.948;2022-08-25T07:18:45;22.40;99.90
18593;DHT22;9426;54.118;17.948;2022-08-25T07:24:10;22.40;99.90
18593;DHT22;9426;54.118;17.948;2022-08-25T07:29:34;22.40;99.90
18593;DHT22;9426;54.118;17.948;2022-08-25T07:35:01;22.40;99.90
18593;DHT22;9426;54.118;17.948;2022-08-25T07:40:41;22.50;99.90
18593;DHT22;9426;54.118;17.948;2022-08-25T07:46:05;22.80;99.90
18593;DHT22;9426;54.118;17.948;2022-08-25T07:51:30;23.20;99.90
18593;DHT22;9426;54.118;17.948;2022-08-25T07:56:53;23.50;99.90
18593;DHT22;9426;54.118;17.948;2022-08-25T08:02:17;23.60;99.90
18593;DHT22;9426;54.118;17.948;2022-08-25T08:07:41;23.80;99.90
18593;DHT22;9426;54.118;17.948;2022-08-25T08:13:05;23.90;99.90
18593;DHT22;9426;54.118;17.948;2022-08-25T08:18:29;24.30;99.90
18593;DHT22;9426;54.118;17.948;2022-08-25T08:23:54;24.80;99.90
18593;DHT22;9426;54.118;17.948;2022-08-25T08:29:19;25.20;99.90
18593;DHT22;9426;54.118;17.948;2022-08-25T08:34:44;25.50;99.90
18593;DHT22;9426;54.118;17.948;2022-08-25T08:40:12;25.40;99.90
18593;DHT22;9426;54.118;17.948;2022-08-25T08:45:40;25.00;99.90
18593;DHT22;9426;54.118;17.948;2022-08-25T08:51:15;24.90;99.90
18593;DHT22;9426;54.118;17.948;2022-08-25T08:56:46;25.10;99.90
18593;DHT22;9426;54.118;17.948;2022-08-25T09:02:15;25.30;99.90
18593;DHT22;9426;54.118;17.948;2022-08-25T09:07:45;25.40;99.90
18593;DHT22;9426;54.118;17.948;2022-08-25T09:13:18;25.40;99.90
18593;DHT22;9426;54.118;17.948;2022-08-25T09:18:50;25.30;99.90
18593;DHT22;9426;54.118;17.948;2022-08-25T09:24:35;25.40;99.90
18593;DHT22;9426;54.118;17.948;2022-08-25T09:30:07;25.70;99.90
18593;DHT22;9426;54.118;17.948;2022-08-25T09:35:33;26.10;99.90
18593;DHT22;9426;54.118;17.948;2022-08-25T09:40:59;26.10;99.90
18593;DHT22;9426;54.118;17.948;2022-08-25T09:46:25;26.10;99.90
18593;DHT22;9426;54.118;17.948;2022-08-25T09:51:49;26.00;99.90
18593;DHT22;9426;54.118;17.948;2022-08-25T09:57:28;26.90;99.90
18593;DHT22;9426;54.118;17.948;2022-08-25T10:03:10;26.70;99.90
18593;DHT22;9426;54.118;17.948;2022-08-25T10:08:37;25.90;99.90
18593;DHT22;9426;54.118;17.948;2022-08-25T10:14:03;25.70;99.90
18593;DHT22;9426;54.118;17.948;2022-08-25T10:19:30;25.90;99.90
18593;DHT22;9426;54.118;17.948;2022-08-25T10:24:54;26.70;99.90
18593;DHT22;9426;54.118;17.948;2022-08-25T10:30:20;27.00;99.90
18593;DHT22;9426;54.118;17.948;2022-08-25T10:35:54;26.80;99.90
18593;DHT22;9426;54.118;17.948;2022-08-25T10:41:40;27.10;99.90
18593;DHT22;9426;54.118;17.948;2022-08-25T10:53:20;27.30;99.90
18593;DHT22;9426;54.118;17.948;2022-08-25T10:59:09;28.20;99.90
18593;DHT22;9426;54.118;17.948;2022-08-25T11:04:39;27.80;99.90
18593;DHT22;9426;54.118;17.948;2022-08-25T11:10:07;27.30;99.90
18593;DHT22;9426;54.118;17.948;2022-08-25T11:15:36;27.80;99.90
18593;DHT22;9426;54.118;17.948;2022-08-25T11:21:10;28.40;99.90
18593;DHT22;9426;54.118;17.948;2022-08-25T11:26:37;28.10;99.90
18593;DHT22;9426;54.118;17.948;2022-08-25T11:32:03;27.60;99.90
18593;DHT22;9426;54.118;17.948;2022-08-25T11:37:28;28.20;99.90
18593;DHT22;9426;54.118;17.948;2022-08-25T11:43:08;29.00;99.90
18593;DHT22;9426;54.118;17.948;2022-08-25T11:48:40;28.90;99.90
18593;DHT22;9426;54.118;17.948;2022-08-25T11:54:18;29.20;99.90
18593;DHT22;9426;54.118;17.948;2022-08-25T12:00:05;31.10;99.90
18593;DHT22;9426;54.118;17.948;2022-08-25T12:05:51;32.20;99.90
18593;DHT22;9426;54.118;17.948;2022-08-25T12:11:43;31.10;99.90
18593;DHT22;9426;54.118;17.948;2022-08-25T12:17:18;30.30;99.90
18593;DHT22;9426;54.118;17.948;2022-08-25T12:22:57;30.80;99.90
18593;DHT22;9426;54.118;17.948;2022-08-25T12:28:40;32.40;99.90
18593;DHT22;9426;54.118;17.948;2022-08-25T12:39:59;32.00;99.90
18593;DHT22;9426;54.118;17.948;2022-08-25T12:45:37;32.40;99.90
18593;DHT22;9426;54.118;17.948;2022-08-25T12:51:04;33.20;99.90
18593;DHT22;9426;54.118;17.948;2022-08-25T12:56:33;32.20;99.90
18593;DHT22;9426;54.118;17.948;2022-08-25T13:02:17;33.90;99.90
18593;DHT22;9426;54.118;17.948;2022-08-25T13:08:12;34.20;99.90
18593;DHT22;9426;54.118;17.948;2022-08-25T13:13:48;32.90;99.90
18593;DHT22;9426;54.118;17.948;2022-08-25T13:19:18;30.60;99.90
18593;DHT22;9426;54.118;17.948;2022-08-25T13:24:45;29.90;99.90
18593;DHT22;9426;54.118;17.948;2022-08-25T13:30:23;29.60;99.90
18593;DHT22;9426;54.118;17.948;2022-08-25T13:35:47;29.10;99.90
18593;DHT22;9426;54.118;17.948;2022-08-25T13:41:17;30.40;99.90
18593;DHT22;9426;54.118;17.948;2022-08-25T13:46:40;29.90;99.90
18593;DHT22;9426;54.118;17.948;2022-08-25T13:52:06;30.00;99.90
18593;DHT22;9426;54.118;17.948;2022-08-25T13:57:32;28.80;99.90
18593;DHT22;9426;54.118;17.948;2022-08-25T14:02:55;29.30;99.90
18593;DHT22;9426;54.118;17.948;2022-08-25T14:08:30;32.20;99.90
18593;DHT22;9426;54.118;17.948;2022-08-25T14:14:00;33.80;99.90
18593;DHT22;9426;54.118;17.948;2022-08-25T14:19:25;31.40;99.90
18593;DHT22;9426;54.118;17.948;2022-08-25T14:24:51;31.00;99.90
18593;DHT22;9426;54.118;17.948;2022-08-25T14:30:16;33.50;99.90
18593;DHT22;9426;54.118;17.948;2022-08-25T14:35:41;33.60;99.90
18593;DHT22;9426;54.118;17.948;2022-08-25T14:41:05;34.50;99.90
18593;DHT22;9426;54.118;17.948;2022-08-25T14:46:32;35.00;99.90
18593;DHT22;9426;54.118;17.948;2022-08-25T14:52:08;34.90;99.90
18593;DHT22;9426;54.118;17.948;2022-08-25T14:57:32;33.20;99.90
18593;DHT22;9426;54.118;17.948;2022-08-25T15:02:58;32.00;99.90
18593;DHT22;9426;54.118;17.948;2022-08-25T15:08:22;33.80;99.90
18593;DHT22;9426;54.118;17.948;2022-08-25T15:14:02;34.40;99.90
18593;DHT22;9426;54.118;17.948;2022-08-25T15:19:28;32.80;99.90
18593;DHT22;9426;54.118;17.948;2022-08-25T15:24:51;32.00;99.90
18593;DHT22;9426;54.118;17.948;2022-08-25T15:30:15;32.60;99.90
18593;DHT22;9426;54.118;17.948;2022-08-25T15:35:40;31.50;99.90
18593;DHT22;9426;54.118;17.948;2022-08-25T15:41:03;30.50;99.90
18593;DHT22;9426;54.118;17.948;2022-08-25T15:46:28;28.80;99.90
18593;DHT22;9426;54.118;17.948;2022-08-25T15:51:54;27.40;99.90
18593;DHT22;9426;54.118;17.948;2022-08-25T15:57:17;26.70;99.90
18593;DHT22;9426;54.118;17.948;2022-08-25T16:02:40;26.70;99.90
18593;DHT22;9426;54.118;17.948;2022-08-25T16:08:05;28.30;99.90
18593;DHT22;9426;54.118;17.948;2022-08-25T16:13:29;29.50;99.90
18593;DHT22;9426;54.118;17.948;2022-08-25T16:18:53;29.40;99.90
18593;DHT22;9426;54.118;17.948;2022-08-25T16:24:18;28.50;99.90
18593;DHT22;9426;54.118;17.948;2022-08-25T16:29:43;27.30;99.90
18593;DHT22;9426;54.118;17.948;2022-08-25T16:35:07;26.20;99.90
18593;DHT22;9426;54.118;17.948;2022-08-25T16:40:33;25.90;99.90
18593;DHT22;9426;54.118;17.948;2022-08-25T16:46:01;26.30;99.90
18593;DHT22;9426;54.118;17.948;2022-08-25T16:51:25;26.40;99.90
18593;DHT22;9426;54.118;17.948;2022-08-25T16:56:50;25.80;99.90
18593;DHT22;9426;54.118;17.948;2022-08-25T17:02:14;25.30;99.90
18593;DHT22;9426;54.118;17.948;2022-08-25T17:07:38;24.90;99.90
18593;DHT22;9426;54.118;17.948;2022-08-25T17:13:09;24.50;99.90
18593;DHT22;9426;54.118;17.948;2022-08-25T17:18:35;24.10;99.90
18593;DHT22;9426;54.118;17.948;2022-08-25T17:24:00;23.90;99.90
18593;DHT22;9426;54.118;17.948;2022-08-25T17:29:25;23.60;99.90
18593;DHT22;9426;54.118;17.948;2022-08-25T17:34:50;23.30;99.90
18593;DHT22;9426;54.118;17.948;2022-08-25T17:40:14;23.00;99.90
18593;DHT22;9426;54.118;17.948;2022-08-25T17:45:40;22.70;99.90
18593;DHT22;9426;54.118;17.948;2022-08-25T17:51:06;22.40;99.90
18593;DHT22;9426;54.118;17.948;2022-08-25T17:56:30;22.20;99.90
18593;DHT22;9426;54.118;17.948;2022-08-25T18:01:55;21.90;99.90
18593;DHT22;9426;54.118;17.948;2022-08-25T18:07:19;21.70;99.90
18593;DHT22;9426;54.118;17.948;2022-08-25T18:12:43;21.40;99.90
18593;DHT22;9426;54.118;17.948;2022-08-25T18:18:08;21.20;99.90
18593;DHT22;9426;54.118;17.948;2022-08-25T18:23:31;21.10;99.90
18593;DHT22;9426;54.118;17.948;2022-08-25T18:28:55;21.00;99.90
18593;DHT22;9426;54.118;17.948;2022-08-25T18:34:20;20.90;99.90
18593;DHT22;9426;54.118;17.948;2022-08-25T18:39:44;20.80;99.90
18593;DHT22;9426;54.118;17.948;2022-08-25T18:45:29;20.70;99.90
18593;DHT22;9426;54.118;17.948;2022-08-25T18:50:55;20.60;99.90
18593;DHT22;9426;54.118;17.948;2022-08-25T18:56:19;20.50;99.90
18593;DHT22;9426;54.118;17.948;2022-08-25T19:01:43;20.30;99.90
18593;DHT22;9426;54.118;17.948;2022-08-25T19:07:08;20.30;99.90
18593;DHT22;9426;54.118;17.948;2022-08-25T19:12:33;20.20;99.90
18593;DHT22;9426;54.118;17.948;2022-08-25T19:17:57;20.20;99.90
18593;DHT22;9426;54.118;17.948;2022-08-25T19:23:22;20.20;99.90
18593;DHT22;9426;54.118;17.948;2022-08-25T19:28:46;20.30;99.90
18593;DHT22;9426;54.118;17.948;2022-08-25T19:34:13;20.30;99.90
18593;DHT22;9426;54.118;17.948;2022-08-25T19:39:42;20.30;99.90
18593;DHT22;9426;54.118;17.948;2022-08-25T19:45:09;20.40;99.90
18593;DHT22;9426;54.118;17.948;2022-08-25T19:50:33;20.40;99.90
18593;DHT22;9426;54.118;17.948;2022-08-25T19:55:58;20.40;99.90
18593;DHT22;9426;54.118;17.948;2022-08-25T20:01:22;20.40;99.90
18593;DHT22;9426;54.118;17.948;2022-08-25T20:06:46;20.50;99.90
18593;DHT22;9426;54.118;17.948;2022-08-25T20:12:11;20.50;99.90
18593;DHT22;9426;54.118;17.948;2022-08-25T20:17:39;20.50;99.90
18593;DHT22;9426;54.118;17.948;2022-08-25T20:23:03;20.40;99.90
18593;DHT22;9426;54.118;17.948;2022-08-25T20:28:48;20.40;99.90
18593;DHT22;9426;54.118;17.948;2022-08-25T20:34:11;20.40;99.90
18593;DHT22;9426;54.118;17.948;2022-08-25T20:39:35;20.40;99.90
18593;DHT22;9426;54.118;17.948;2022-08-25T20:45:00;20.40;99.90
18593;DHT22;9426;54.118;17.948;2022-08-25T20:50:24;20.30;99.90
18593;DHT22;9426;54.118;17.948;2022-08-25T20:55:47;20.30;99.90
18593;DHT22;9426;54.118;17.948;2022-08-25T21:01:15;20.20;99.90
18593;DHT22;9426;54.118;17.948;2022-08-25T21:06:42;20.10;99.90
18593;DHT22;9426;54.118;17.948;2022-08-25T21:12:05;20.10;99.90
18593;DHT22;9426;54.118;17.948;2022-08-25T21:17:30;20.00;99.90
18593;DHT22;9426;54.118;17.948;2022-08-25T21:22:54;19.90;99.90
18593;DHT22;9426;54.118;17.948;2022-08-25T21:28:17;19.80;99.90
18593;DHT22;9426;54.118;17.948;2022-08-25T21:33:42;19.80;99.90
18593;DHT22;9426;54.118;17.948;2022-08-25T21:39:07;19.80;99.90
18593;DHT22;9426;54.118;17.948;2022-08-25T21:44:31;19.70;99.90
18593;DHT22;9426;54.118;17.948;2022-08-25T21:49:56;19.70;99.90
18593;DHT22;9426;54.118;17.948;2022-08-25T21:55:19;19.60;99.90
18593;DHT22;9426;54.118;17.948;2022-08-25T22:00:43;19.70;99.90
18593;DHT22;9426;54.118;17.948;2022-08-25T22:06:12;19.70;99.90
18593;DHT22;9426;54.118;17.948;2022-08-25T22:11:38;19.70;99.90
18593;DHT22;9426;54.118;17.948;2022-08-25T22:17:01;19.70;99.90
18593;DHT22;9426;54.118;17.948;2022-08-25T22:22:27;19.70;99.90
18593;DHT22;9426;54.118;17.948;2022-08-25T22:27:51;19.70;99.90
18593;DHT22;9426;54.118;17.948;2022-08-25T22:33:14;19.70;99.90
18593;DHT22;9426;54.118;17.948;2022-08-25T22:38:39;19.70;99.90
18593;DHT22;9426;54.118;17.948;2022-08-25T22:44:02;19.70;99.90
18593;DHT22;9426;54.118;17.948;2022-08-25T22:49:27;19.70;99.90
18593;DHT22;9426;54.118;17.948;2022-08-25T22:54:52;19.70;99.90
18593;DHT22;9426;54.118;17.948;2022-08-25T23:00:16;19.70;99.90
18593;DHT22;9426;54.118;17.948;2022-08-25T23:05:39;19.70;99.90
18593;DHT22;9426;54.118;17.948;2022-08-25T23:11:04;19.60;99.90
18593;DHT22;9426;54.118;17.948;2022-08-25T23:16:28;19.50;99.90
18593;DHT22;9426;54.118;17.948;2022-08-25T23:21:52;19.50;99.90
18593;DHT22;9426;54.118;17.948;2022-08-25T23:27:30;19.50;99.90
18593;DHT22;9426;54.118;17.948;2022-08-25T23:32:53;19.40;99.90
18593;DHT22;9426;54.118;17.948;2022-08-25T23:38:17;19.40;99.90
18593;DHT22;9426;54.118;17.948;2022-08-25T23:43:42;19.40;99.90
18593;DHT22;9426;54.118;17.948;2022-08-25T23:49:07;19.30;99.90
18593;DHT22;9426;54.118;17.948;2022-08-25T23:54:30;19.30;99.90
18593;DHT22;9426;54.118;17.948;2022-08-25T23:59:55;19.10;99.90
